createdAt,value
2022-10-08T00:01:16.804Z,2.33
2022-10-08T00:06:38.444Z,1.70
2022-10-08T00:12:00.144Z,1.08
2022-10-08T00:17:21.841Z,4.07
2022-10-08T00:22:43.571Z,1.40
2022-10-08T00:28:05.521Z,1.65
2022-10-08T00:33:27.753Z,4.47
2022-10-08T00:38:50.220Z,1.27
2022-10-08T00:44:54.513Z,1.10
2022-10-08T00:50:21.118Z,2.80
2022-10-08T00:55:44.081Z,2.05
2022-10-08T01:01:06.150Z,2.33
2022-10-08T01:06:41.508Z,1.42
2022-10-08T01:12:54.251Z,2.30
2022-10-08T01:18:39.803Z,3.92
2022-10-08T01:24:50.728Z,2.97
2022-10-08T01:30:16.595Z,2.85
2022-10-08T01:35:44.799Z,3.60
2022-10-08T01:41:09.490Z,1.13
2022-10-08T01:46:34.064Z,3.77
2022-10-08T01:52:01.977Z,0.80
2022-10-08T01:57:26.658Z,3.28
2022-10-08T02:02:48.655Z,2.77
2022-10-08T02:08:10.969Z,3.50
2022-10-08T02:13:33.185Z,2.55
2022-10-08T02:19:06.081Z,3.50
2022-10-08T02:24:50.507Z,1.90
2022-10-08T02:30:13.353Z,0.77
2022-10-08T02:35:42.997Z,0.70
2022-10-08T02:41:08.026Z,2.22
2022-10-08T02:46:37.794Z,2.60
2022-10-08T02:52:02.099Z,1.33
2022-10-08T02:57:31.382Z,1.90
2022-10-08T03:02:59.044Z,1.17
2022-10-08T03:08:21.812Z,1.50
2022-10-08T03:13:48.424Z,1.17
2022-10-08T03:19:12.739Z,2.47
2022-10-08T03:24:36.075Z,0.32
2022-10-08T03:29:57.711Z,1.15
2022-10-08T03:35:19.744Z,0.52
2022-10-08T03:40:42.784Z,0.63
2022-10-08T03:46:04.867Z,0.77
2022-10-08T03:51:26.733Z,1.45
2022-10-08T03:56:48.390Z,1.33
2022-10-08T04:02:10.074Z,0.80
2022-10-08T04:07:31.741Z,1.10
2022-10-08T04:12:53.401Z,1.02
2022-10-08T04:18:15.860Z,0.85
2022-10-08T04:23:39.158Z,1.55
2022-10-08T04:29:00.874Z,1.85
2022-10-08T04:34:22.504Z,1.13
2022-10-08T04:39:44.115Z,1.02
2022-10-08T04:45:06.266Z,1.60
2022-10-08T04:50:27.870Z,1.33
2022-10-08T04:55:49.526Z,1.15
2022-10-08T05:01:13.891Z,1.25
2022-10-08T05:06:35.673Z,0.88
2022-10-08T05:11:57.326Z,1.08
2022-10-08T05:17:19.061Z,0.47
2022-10-08T05:22:40.734Z,0.32
2022-10-08T05:28:03.572Z,0.43
2022-10-08T05:33:25.269Z,0.85
2022-10-08T05:38:47.189Z,1.40
2022-10-08T05:44:10.480Z,0.57
2022-10-08T05:49:32.657Z,1.02
2022-10-08T05:54:54.308Z,0.52
2022-10-08T06:00:16.129Z,1.70
2022-10-08T06:05:37.808Z,0.98
2022-10-08T06:10:59.890Z,0.55
2022-10-08T06:16:22.562Z,0.50
2022-10-08T06:21:44.271Z,0.77
2022-10-08T06:27:05.909Z,1.98
2022-10-08T06:32:27.631Z,0.40
2022-10-08T06:37:49.547Z,0.68
2022-10-08T06:43:14.180Z,1.63
2022-10-08T06:48:35.906Z,1.47
2022-10-08T06:54:04.406Z,1.42
2022-10-08T06:59:28.881Z,6.32
2022-10-08T07:04:50.525Z,1.60
2022-10-08T07:10:12.310Z,2.22
2022-10-08T07:15:33.948Z,3.20
2022-10-08T07:20:56.672Z,3.22
2022-10-08T07:26:20.958Z,2.95
2022-10-08T07:31:42.741Z,1.60
2022-10-08T07:37:04.452Z,7.97
2022-10-08T07:42:26.120Z,5.90
2022-10-08T07:47:47.802Z,4.45
2022-10-08T07:53:09.594Z,3.58
2022-10-08T07:58:31.434Z,4.30
2022-10-08T08:03:55.669Z,4.78
2022-10-08T08:09:18.437Z,5.78
2022-10-08T08:14:40.148Z,7.40
2022-10-08T08:20:01.779Z,2.85
2022-10-08T08:25:23.395Z,5.32
2022-10-08T08:30:45.017Z,3.58
2022-10-08T08:36:07.373Z,8.52
2022-10-08T08:41:47.215Z,9.50
2022-10-08T08:47:14.921Z,5.20
2022-10-08T08:52:42.452Z,8.40
2022-10-08T08:58:11.111Z,8.60
2022-10-08T09:03:39.810Z,9.32
2022-10-08T09:09:12.344Z,6.53
2022-10-08T09:14:44.636Z,7.57
2022-10-08T09:20:07.006Z,7.45
2022-10-08T09:25:33.107Z,7.32
2022-10-08T09:31:00.088Z,13.60
2022-10-08T09:36:31.554Z,6.28
2022-10-08T09:42:08.258Z,12.63
2022-10-08T09:47:31.086Z,8.02
2022-10-08T09:52:56.060Z,10.75
2022-10-08T09:58:19.839Z,4.90
2022-10-08T10:03:54.084Z,12.52
2022-10-08T10:09:33.916Z,9.38
2022-10-08T10:15:02.100Z,8.52
2022-10-08T10:20:33.444Z,8.35
2022-10-08T10:26:09.114Z,8.77
2022-10-08T10:31:38.871Z,10.27
2022-10-08T10:37:12.444Z,6.00
2022-10-08T10:42:39.845Z,11.48
2022-10-08T10:48:02.607Z,4.47
2022-10-08T10:53:43.181Z,10.88
2022-10-08T10:59:36.180Z,4.88
2022-10-08T11:05:27.288Z,6.28
2022-10-08T11:11:06.970Z,5.57
2022-10-08T11:16:47.842Z,5.40
2022-10-08T11:22:24.968Z,5.63
2022-10-08T11:27:58.570Z,7.60
2022-10-08T11:33:20.940Z,4.78
2022-10-08T11:38:51.691Z,3.47
2022-10-08T11:44:14.022Z,3.67
2022-10-08T11:49:38.452Z,3.22
2022-10-08T11:55:04.826Z,4.38
2022-10-08T12:00:42.140Z,6.75
2022-10-08T12:06:26.783Z,4.45
2022-10-08T12:11:51.078Z,5.88
2022-10-08T12:17:13.113Z,9.65
2022-10-08T12:22:34.662Z,6.78
2022-10-08T12:28:19.259Z,11.52
2022-10-08T12:33:41.816Z,11.10
2022-10-08T12:39:42.775Z,7.68
2022-10-08T12:45:34.797Z,6.53
2022-10-08T12:51:44.160Z,16.38
2022-10-08T12:57:11.885Z,14.00
2022-10-08T13:02:42.866Z,17.77
2022-10-08T13:08:37.331Z,7.88
2022-10-08T13:13:59.786Z,8.25
2022-10-08T13:19:37.929Z,8.80
2022-10-08T13:24:59.592Z,8.75
2022-10-08T13:30:28.243Z,9.63
2022-10-08T13:35:56.765Z,5.40
2022-10-08T13:41:24.087Z,6.78
2022-10-08T13:46:46.045Z,5.88
2022-10-08T13:52:15.841Z,6.50
2022-10-08T13:57:37.509Z,6.10
2022-10-08T14:03:00.209Z,7.50
2022-10-08T14:08:28.458Z,7.95
2022-10-08T14:13:50.211Z,6.80
2022-10-08T14:19:12.402Z,3.47
2022-10-08T14:24:34.098Z,9.13
2022-10-08T14:29:55.742Z,4.95
2022-10-08T14:35:17.830Z,3.40
2022-10-08T14:40:39.496Z,4.65
2022-10-08T14:46:01.382Z,6.65
2022-10-08T14:51:23.260Z,4.32
2022-10-08T14:56:46.153Z,7.72
2022-10-08T15:02:10.754Z,3.15
2022-10-08T15:07:32.478Z,5.67
2022-10-08T15:12:54.201Z,4.97
2022-10-08T15:18:16.020Z,3.78
2022-10-08T15:23:37.660Z,6.38
2022-10-08T15:28:59.318Z,3.20
2022-10-08T15:34:21.146Z,2.53
2022-10-08T15:39:42.959Z,4.47
2022-10-08T15:45:05.087Z,5.38
2022-10-08T15:50:26.704Z,5.15
2022-10-08T15:55:58.007Z,4.57
2022-10-08T16:01:22.858Z,9.68
2022-10-08T16:06:47.690Z,17.23
2022-10-08T16:12:09.482Z,9.20
2022-10-08T16:17:31.330Z,5.82
2022-10-08T16:22:53.019Z,10.68
2022-10-08T16:28:14.754Z,9.80
2022-10-08T16:33:36.407Z,8.73
2022-10-08T16:38:58.149Z,8.95
2022-10-08T16:44:21.287Z,14.88
2022-10-08T16:49:43.886Z,11.13
2022-10-08T16:55:06.204Z,18.20
2022-10-08T17:00:27.960Z,15.73
2022-10-08T17:05:49.588Z,19.73
2022-10-08T17:11:12.922Z,13.20
2022-10-08T17:16:35.834Z,16.10
2022-10-08T17:21:57.554Z,7.35
2022-10-08T17:27:19.183Z,13.52
2022-10-08T17:32:40.853Z,8.43
2022-10-08T17:38:02.505Z,11.45
2022-10-08T17:43:24.304Z,12.50
2022-10-08T17:48:46.747Z,7.38
2022-10-08T17:54:12.477Z,8.15
2022-10-08T17:59:34.094Z,8.15
2022-10-08T18:04:55.761Z,4.97
2022-10-08T18:10:17.497Z,7.82
2022-10-08T18:15:39.156Z,6.70
2022-10-08T18:21:02.110Z,6.22
2022-10-08T18:26:25.285Z,4.93
2022-10-08T18:31:46.996Z,7.05
2022-10-08T18:37:08.658Z,7.57
2022-10-08T18:42:30.333Z,11.52
2022-10-08T18:47:51.988Z,8.90
2022-10-08T18:53:13.617Z,9.88
2022-10-08T18:58:35.615Z,12.35
2022-10-08T19:04:00.174Z,6.43
2022-10-08T19:09:22.438Z,8.20
2022-10-08T19:14:44.222Z,12.80
2022-10-08T19:20:06.288Z,10.90
2022-10-08T19:25:30.182Z,6.63
2022-10-08T19:30:51.882Z,12.25
2022-10-08T19:36:15.301Z,7.13
2022-10-08T19:41:38.378Z,9.15
2022-10-08T19:47:00.036Z,9.95
2022-10-08T19:52:21.724Z,14.75
2022-10-08T19:57:43.369Z,3.53
2022-10-08T20:03:05.183Z,8.52
2022-10-08T20:08:26.849Z,8.13
2022-10-08T20:13:50.136Z,5.95
2022-10-08T20:19:17.746Z,9.02
2022-10-08T20:24:39.382Z,9.07
2022-10-08T20:30:01.120Z,12.23
2022-10-08T20:35:23.142Z,8.27
2022-10-08T20:40:44.800Z,2.70
2022-10-08T20:46:09.181Z,3.88
2022-10-08T20:51:32.078Z,7.40
2022-10-08T20:56:53.775Z,4.53
2022-10-08T21:02:19.587Z,4.50
2022-10-08T21:07:41.599Z,3.95
2022-10-08T21:13:04.141Z,5.53
2022-10-08T21:18:25.952Z,4.93
2022-10-08T21:23:49.255Z,2.33
2022-10-08T21:29:13.094Z,6.00
2022-10-08T21:34:34.706Z,1.90
2022-10-08T21:39:56.456Z,3.65
2022-10-08T21:45:18.212Z,1.42
2022-10-08T21:50:40.036Z,2.15
2022-10-08T21:56:11.237Z,2.33
2022-10-08T22:01:36.707Z,3.20
2022-10-08T22:12:20.326Z,1.02
2022-10-08T22:17:41.950Z,0.98
2022-10-08T22:23:03.624Z,1.85
2022-10-08T22:28:26.089Z,0.50
2022-10-08T22:33:48.590Z,1.90
2022-10-08T22:39:10.466Z,1.02
2022-10-08T22:44:33.424Z,1.98
2022-10-08T22:49:55.082Z,0.68
2022-10-08T22:55:17.508Z,2.03
2022-10-08T23:00:39.156Z,1.88
2022-10-08T23:06:03.079Z,0.43
2022-10-08T23:11:25.786Z,0.70
2022-10-08T23:16:49.132Z,0.55
2022-10-08T23:22:10.804Z,2.47
2022-10-08T23:27:32.423Z,1.50
2022-10-08T23:32:54.040Z,1.60
2022-10-08T23:38:15.693Z,1.42
2022-10-08T23:43:39.937Z,1.50
2022-10-08T23:49:01.962Z,2.28
2022-10-08T23:54:23.644Z,1.02
2022-10-08T23:59:45.252Z,1.73
